sensor_id;sensor_type;location;lat;lon;timestamp;pressure;altitude;pressure_sealevel;temperature;humidity
63111;BME280;49201;53.426;10.300;2022-11-14T00:01:48;102305.16;;;8.14;97.51
63111;BME280;49201;53.426;10.300;2022-11-14T00:04:32;102301.69;;;8.12;97.52
63111;BME280;49201;53.426;10.300;2022-11-14T00:07:16;102303.44;;;8.13;97.21
63111;BME280;49201;53.426;10.300;2022-11-14T00:10:00;102300.69;;;8.10;97.31
63111;BME280;49201;53.426;10.300;2022-11-14T00:12:44;102295.38;;;8.05;97.99
63111;BME280;49201;53.426;10.300;2022-11-14T00:15:28;102297.22;;;8.08;97.97
63111;BME280;49201;53.426;10.300;2022-11-14T00:18:12;102304.88;;;8.08;97.94
63111;BME280;49201;53.426;10.300;2022-11-14T00:20:56;102285.97;;;8.04;97.77
63111;BME280;49201;53.426;10.300;2022-11-14T00:23:40;102272.41;;;8.05;97.60
63111;BME280;49201;53.426;10.300;2022-11-14T00:26:24;102275.13;;;8.08;98.26
63111;BME280;49201;53.426;10.300;2022-11-14T00:29:10;102273.22;;;8.04;97.39
63111;BME280;49201;53.426;10.300;2022-11-14T00:31:54;102265.56;;;8.04;97.48
63111;BME280;49201;53.426;10.300;2022-11-14T00:34:38;102257.75;;;8.01;97.71
63111;BME280;49201;53.426;10.300;2022-11-14T00:37:22;102245.97;;;8.03;97.98
63111;BME280;49201;53.426;10.300;2022-11-14T00:40:07;102251.06;;;8.03;97.73
63111;BME280;49201;53.426;10.300;2022-11-14T00:42:51;102238.38;;;8.05;97.95
63111;BME280;49201;53.426;10.300;2022-11-14T00:45:34;102234.00;;;8.02;98.03
63111;BME280;49201;53.426;10.300;2022-11-14T00:48:19;102233.13;;;8.02;97.65
63111;BME280;49201;53.426;10.300;2022-11-14T00:51:03;102241.50;;;7.99;97.20
63111;BME280;49201;53.426;10.300;2022-11-14T00:53:47;102238.16;;;8.00;98.55
63111;BME280;49201;53.426;10.300;2022-11-14T00:56:31;102242.38;;;8.00;97.91
63111;BME280;49201;53.426;10.300;2022-11-14T00:59:15;102243.34;;;8.02;97.38
63111;BME280;49201;53.426;10.300;2022-11-14T01:01:59;102243.00;;;7.96;97.55
63111;BME280;49201;53.426;10.300;2022-11-14T01:04:44;102238.69;;;7.95;97.85
63111;BME280;49201;53.426;10.300;2022-11-14T01:07:28;102236.31;;;7.98;98.19
63111;BME280;49201;53.426;10.300;2022-11-14T01:10:12;102225.94;;;7.95;98.28
63111;BME280;49201;53.426;10.300;2022-11-14T01:12:56;102230.81;;;7.90;97.98
63111;BME280;49201;53.426;10.300;2022-11-14T01:15:47;102234.41;;;7.94;98.38
63111;BME280;49201;53.426;10.300;2022-11-14T01:18:31;102224.28;;;7.95;98.06
63111;BME280;49201;53.426;10.300;2022-11-14T01:21:16;102216.56;;;7.94;98.07
63111;BME280;49201;53.426;10.300;2022-11-14T01:24:00;102214.81;;;7.93;98.28
63111;BME280;49201;53.426;10.300;2022-11-14T01:26:44;102218.22;;;7.93;98.22
63111;BME280;49201;53.426;10.300;2022-11-14T01:29:28;102208.81;;;7.92;98.19
63111;BME280;49201;53.426;10.300;2022-11-14T01:32:12;102204.53;;;7.91;98.12
63111;BME280;49201;53.426;10.300;2022-11-14T01:34:56;102201.06;;;7.91;97.82
63111;BME280;49201;53.426;10.300;2022-11-14T01:37:40;102198.53;;;7.91;97.90
63111;BME280;49201;53.426;10.300;2022-11-14T01:40:24;102188.41;;;7.92;98.11
63111;BME280;49201;53.426;10.300;2022-11-14T01:46:11;102190.25;;;7.95;97.72
63111;BME280;49201;53.426;10.300;2022-11-14T01:49:23;102173.91;;;7.91;97.70
63111;BME280;49201;53.426;10.300;2022-11-14T01:52:18;102174.72;;;7.90;98.09
63111;BME280;49201;53.426;10.300;2022-11-14T01:55:06;102175.66;;;7.92;98.30
63111;BME280;49201;53.426;10.300;2022-11-14T01:57:51;102164.59;;;7.92;97.71
63111;BME280;49201;53.426;10.300;2022-11-14T02:00:35;102167.16;;;7.92;97.65
63111;BME280;49201;53.426;10.300;2022-11-14T02:03:20;102163.88;;;7.94;97.69
63111;BME280;49201;53.426;10.300;2022-11-14T02:06:06;102158.69;;;7.93;97.67
63111;BME280;49201;53.426;10.300;2022-11-14T02:08:51;102146.75;;;7.92;97.33
63111;BME280;49201;53.426;10.300;2022-11-14T02:11:39;102150.88;;;7.90;98.33
63111;BME280;49201;53.426;10.300;2022-11-14T02:14:25;102146.59;;;7.89;98.13
63111;BME280;49201;53.426;10.300;2022-11-14T02:17:11;102137.31;;;7.91;97.18
63111;BME280;49201;53.426;10.300;2022-11-14T02:22:46;102128.75;;;7.89;97.64
63111;BME280;49201;53.426;10.300;2022-11-14T02:25:30;102127.13;;;7.91;97.70
63111;BME280;49201;53.426;10.300;2022-11-14T02:28:13;102128.81;;;7.90;97.98
63111;BME280;49201;53.426;10.300;2022-11-14T02:30:58;102129.63;;;7.89;97.76
63111;BME280;49201;53.426;10.300;2022-11-14T02:33:42;102121.91;;;7.88;97.86
63111;BME280;49201;53.426;10.300;2022-11-14T02:36:26;102120.00;;;7.84;97.69
63111;BME280;49201;53.426;10.300;2022-11-14T02:39:10;102114.97;;;7.85;97.36
63111;BME280;49201;53.426;10.300;2022-11-14T02:41:54;102113.19;;;7.84;97.57
63111;BME280;49201;53.426;10.300;2022-11-14T02:44:38;102107.25;;;7.84;97.01
63111;BME280;49201;53.426;10.300;2022-11-14T02:47:22;102103.00;;;7.84;97.94
63111;BME280;49201;53.426;10.300;2022-11-14T02:50:08;102105.41;;;7.81;97.54
63111;BME280;49201;53.426;10.300;2022-11-14T02:52:52;102100.44;;;7.84;97.65
63111;BME280;49201;53.426;10.300;2022-11-14T02:55:36;102103.88;;;7.85;97.41
63111;BME280;49201;53.426;10.300;2022-11-14T02:58:20;102105.50;;;7.83;98.75
63111;BME280;49201;53.426;10.300;2022-11-14T03:01:04;102090.91;;;7.80;98.53
63111;BME280;49201;53.426;10.300;2022-11-14T03:03:48;102090.19;;;7.83;97.95
63111;BME280;49201;53.426;10.300;2022-11-14T03:06:32;102086.69;;;7.81;98.07
63111;BME280;49201;53.426;10.300;2022-11-14T03:09:16;102079.09;;;7.82;97.80
63111;BME280;49201;53.426;10.300;2022-11-14T03:12:01;102074.94;;;7.84;97.51
63111;BME280;49201;53.426;10.300;2022-11-14T03:14:45;102069.06;;;7.85;98.10
63111;BME280;49201;53.426;10.300;2022-11-14T03:17:30;102069.84;;;7.84;97.86
63111;BME280;49201;53.426;10.300;2022-11-14T03:20:15;102066.44;;;7.84;98.39
63111;BME280;49201;53.426;10.300;2022-11-14T03:23:00;102054.56;;;7.84;97.80
63111;BME280;49201;53.426;10.300;2022-11-14T03:25:44;102051.16;;;7.84;98.39
63111;BME280;49201;53.426;10.300;2022-11-14T03:28:28;102045.16;;;7.83;97.41
63111;BME280;49201;53.426;10.300;2022-11-14T03:31:13;102045.06;;;7.82;97.43
63111;BME280;49201;53.426;10.300;2022-11-14T03:33:57;102040.88;;;7.82;98.15
63111;BME280;49201;53.426;10.300;2022-11-14T03:36:41;102036.56;;;7.81;98.31
63111;BME280;49201;53.426;10.300;2022-11-14T03:39:25;102029.78;;;7.82;97.71
63111;BME280;49201;53.426;10.300;2022-11-14T03:42:09;102037.31;;;7.79;97.68
63111;BME280;49201;53.426;10.300;2022-11-14T03:44:53;102036.41;;;7.78;98.19
63111;BME280;49201;53.426;10.300;2022-11-14T03:47:37;102033.78;;;7.77;98.00
63111;BME280;49201;53.426;10.300;2022-11-14T03:50:21;102030.47;;;7.78;98.47
63111;BME280;49201;53.426;10.300;2022-11-14T03:53:05;102031.19;;;7.75;98.25
63111;BME280;49201;53.426;10.300;2022-11-14T03:55:50;102027.75;;;7.75;97.40
63111;BME280;49201;53.426;10.300;2022-11-14T03:58:34;102027.75;;;7.75;98.16
63111;BME280;49201;53.426;10.300;2022-11-14T04:01:18;102021.84;;;7.76;97.31
63111;BME280;49201;53.426;10.300;2022-11-14T04:04:02;102020.00;;;7.73;98.20
63111;BME280;49201;53.426;10.300;2022-11-14T04:06:46;102019.22;;;7.74;97.81
63111;BME280;49201;53.426;10.300;2022-11-14T04:09:30;102014.84;;;7.72;97.78
63111;BME280;49201;53.426;10.300;2022-11-14T04:12:14;102019.00;;;7.70;98.68
63111;BME280;49201;53.426;10.300;2022-11-14T04:14:58;102013.81;;;7.68;97.57
63111;BME280;49201;53.426;10.300;2022-11-14T04:17:43;102008.88;;;7.71;98.03
63111;BME280;49201;53.426;10.300;2022-11-14T04:20:27;102002.75;;;7.68;98.03
63111;BME280;49201;53.426;10.300;2022-11-14T04:23:11;101991.69;;;7.67;97.73
63111;BME280;49201;53.426;10.300;2022-11-14T04:25:55;101995.91;;;7.67;97.45
63111;BME280;49201;53.426;10.300;2022-11-14T04:28:39;101993.25;;;7.65;97.51
63111;BME280;49201;53.426;10.300;2022-11-14T04:31:23;101992.41;;;7.65;97.49
63111;BME280;49201;53.426;10.300;2022-11-14T04:34:07;101980.59;;;7.67;97.51
63111;BME280;49201;53.426;10.300;2022-11-14T04:36:51;101976.38;;;7.67;97.75
63111;BME280;49201;53.426;10.300;2022-11-14T04:39:35;101974.78;;;7.69;97.60
63111;BME280;49201;53.426;10.300;2022-11-14T04:42:19;101972.16;;;7.68;97.83
63111;BME280;49201;53.426;10.300;2022-11-14T04:45:04;101966.13;;;7.66;97.59
63111;BME280;49201;53.426;10.300;2022-11-14T04:47:48;101978.06;;;7.67;97.02
63111;BME280;49201;53.426;10.300;2022-11-14T04:50:32;101967.84;;;7.67;98.02
63111;BME280;49201;53.426;10.300;2022-11-14T04:53:16;101974.66;;;7.66;97.47
63111;BME280;49201;53.426;10.300;2022-11-14T04:56:00;101966.19;;;7.67;97.82
63111;BME280;49201;53.426;10.300;2022-11-14T04:58:44;101962.75;;;7.67;97.90
63111;BME280;49201;53.426;10.300;2022-11-14T05:01:28;101968.59;;;7.64;97.48
63111;BME280;49201;53.426;10.300;2022-11-14T05:04:12;101954.09;;;7.63;97.46
63111;BME280;49201;53.426;10.300;2022-11-14T05:06:55;101962.63;;;7.64;98.00
63111;BME280;49201;53.426;10.300;2022-11-14T05:09:39;101956.56;;;7.62;97.68
63111;BME280;49201;53.426;10.300;2022-11-14T05:12:23;101957.38;;;7.61;97.74
63111;BME280;49201;53.426;10.300;2022-11-14T05:15:08;101960.00;;;7.62;98.34
63111;BME280;49201;53.426;10.300;2022-11-14T05:17:52;101947.09;;;7.59;97.60
63111;BME280;49201;53.426;10.300;2022-11-14T05:20:36;101952.13;;;7.58;97.79
63111;BME280;49201;53.426;10.300;2022-11-14T05:23:21;101950.44;;;7.58;98.46
63111;BME280;49201;53.426;10.300;2022-11-14T05:26:11;101953.09;;;7.60;97.65
63111;BME280;49201;53.426;10.300;2022-11-14T05:28:57;101954.75;;;7.59;98.17
63111;BME280;49201;53.426;10.300;2022-11-14T05:31:40;101948.84;;;7.60;97.97
63111;BME280;49201;53.426;10.300;2022-11-14T05:34:25;101945.44;;;7.60;97.66
63111;BME280;49201;53.426;10.300;2022-11-14T05:37:09;101946.22;;;7.59;97.35
63111;BME280;49201;53.426;10.300;2022-11-14T05:39:53;101941.00;;;7.56;97.53
63111;BME280;49201;53.426;10.300;2022-11-14T05:42:37;101942.81;;;7.58;97.71
63111;BME280;49201;53.426;10.300;2022-11-14T05:45:21;101935.25;;;7.60;97.27
63111;BME280;49201;53.426;10.300;2022-11-14T05:48:05;101935.09;;;7.57;97.07
63111;BME280;49201;53.426;10.300;2022-11-14T05:50:53;101929.81;;;7.54;98.29
63111;BME280;49201;53.426;10.300;2022-11-14T05:53:37;101932.63;;;7.58;98.48
63111;BME280;49201;53.426;10.300;2022-11-14T05:56:22;101928.31;;;7.57;97.72
63111;BME280;49201;53.426;10.300;2022-11-14T05:59:06;101933.44;;;7.57;98.27
63111;BME280;49201;53.426;10.300;2022-11-14T06:01:50;101932.53;;;7.57;97.39
63111;BME280;49201;53.426;10.300;2022-11-14T06:04:34;101935.09;;;7.57;98.87
63111;BME280;49201;53.426;10.300;2022-11-14T06:07:18;101932.53;;;7.57;97.58
63111;BME280;49201;53.426;10.300;2022-11-14T06:10:01;101934.28;;;7.58;97.88
63111;BME280;49201;53.426;10.300;2022-11-14T06:12:46;101940.25;;;7.58;98.42
63111;BME280;49201;53.426;10.300;2022-11-14T06:15:30;101942.72;;;7.57;97.94
63111;BME280;49201;53.426;10.300;2022-11-14T06:18:14;101935.09;;;7.57;97.51
63111;BME280;49201;53.426;10.300;2022-11-14T06:21:15;101940.09;;;7.55;98.33
63111;BME280;49201;53.426;10.300;2022-11-14T06:23:59;101937.47;;;7.54;97.60
63111;BME280;49201;53.426;10.300;2022-11-14T06:26:43;101933.19;;;7.53;98.49
63111;BME280;49201;53.426;10.300;2022-11-14T06:29:27;101937.47;;;7.54;98.22
63111;BME280;49201;53.426;10.300;2022-11-14T06:32:11;101933.09;;;7.51;97.80
63111;BME280;49201;53.426;10.300;2022-11-14T06:34:55;101941.47;;;7.49;98.77
63111;BME280;49201;53.426;10.300;2022-11-14T06:37:39;101947.53;;;7.51;97.61
63111;BME280;49201;53.426;10.300;2022-11-14T06:40:23;101953.19;;;7.45;98.27
63111;BME280;49201;53.426;10.300;2022-11-14T06:43:07;101939.56;;;7.45;97.60
63111;BME280;49201;53.426;10.300;2022-11-14T06:45:54;101939.66;;;7.46;97.67
63111;BME280;49201;53.426;10.300;2022-11-14T06:48:39;101949.75;;;7.45;98.47
63111;BME280;49201;53.426;10.300;2022-11-14T06:51:23;101956.56;;;7.44;98.46
63111;BME280;49201;53.426;10.300;2022-11-14T06:54:10;101956.47;;;7.43;98.58
63111;BME280;49201;53.426;10.300;2022-11-14T06:56:55;101956.31;;;7.40;99.17
63111;BME280;49201;53.426;10.300;2022-11-14T06:59:39;101948.56;;;7.38;98.52
63111;BME280;49201;53.426;10.300;2022-11-14T07:02:23;101961.09;;;7.34;98.21
63111;BME280;49201;53.426;10.300;2022-11-14T07:05:06;101955.28;;;7.36;97.41
63111;BME280;49201;53.426;10.300;2022-11-14T07:07:50;101951.94;;;7.37;98.38
63111;BME280;49201;53.426;10.300;2022-11-14T07:10:34;101957.66;;;7.33;97.88
63111;BME280;49201;53.426;10.300;2022-11-14T07:13:18;101953.38;;;7.32;97.63
63111;BME280;49201;53.426;10.300;2022-11-14T07:16:03;101947.44;;;7.32;98.63
63111;BME280;49201;53.426;10.300;2022-11-14T07:18:47;101945.53;;;7.28;97.84
63111;BME280;49201;53.426;10.300;2022-11-14T07:21:32;101952.44;;;7.30;97.66
63111;BME280;49201;53.426;10.300;2022-11-14T07:24:17;101951.56;;;7.30;98.39
63111;BME280;49201;53.426;10.300;2022-11-14T07:27:01;101951.47;;;7.28;98.61
63111;BME280;49201;53.426;10.300;2022-11-14T07:29:45;101946.38;;;7.28;98.14
63111;BME280;49201;53.426;10.300;2022-11-14T07:32:29;101954.03;;;7.28;97.82
63111;BME280;49201;53.426;10.300;2022-11-14T07:35:13;101951.34;;;7.25;98.74
63111;BME280;49201;53.426;10.300;2022-11-14T07:38:01;101942.00;;;7.26;98.20
63111;BME280;49201;53.426;10.300;2022-11-14T07:41:00;101945.66;;;7.31;98.21
63111;BME280;49201;53.426;10.300;2022-11-14T07:43:44;101944.63;;;7.27;97.90
63111;BME280;49201;53.426;10.300;2022-11-14T07:46:28;101939.84;;;7.33;97.66
63111;BME280;49201;53.426;10.300;2022-11-14T07:49:12;101938.25;;;7.35;97.70
63111;BME280;49201;53.426;10.300;2022-11-14T07:51:56;101941.44;;;7.31;98.54
63111;BME280;49201;53.426;10.300;2022-11-14T07:54:40;101939.78;;;7.32;98.11
63111;BME280;49201;53.426;10.300;2022-11-14T07:57:24;101936.56;;;7.36;97.55
63111;BME280;49201;53.426;10.300;2022-11-14T08:00:09;101934.09;;;7.37;98.30
63111;BME280;49201;53.426;10.300;2022-11-14T08:02:54;101918.09;;;7.40;96.95
63111;BME280;49201;53.426;10.300;2022-11-14T08:05:38;101921.53;;;7.40;97.61
63111;BME280;49201;53.426;10.300;2022-11-14T08:08:21;101925.09;;;7.44;97.12
63111;BME280;49201;53.426;10.300;2022-11-14T08:11:05;101923.19;;;7.40;97.45
63111;BME280;49201;53.426;10.300;2022-11-14T08:13:49;101923.50;;;7.46;96.97
63111;BME280;49201;53.426;10.300;2022-11-14T08:16:33;101919.06;;;7.42;97.19
63111;BME280;49201;53.426;10.300;2022-11-14T08:19:17;101916.72;;;7.46;97.64
63111;BME280;49201;53.426;10.300;2022-11-14T08:22:01;101909.22;;;7.49;97.00
63111;BME280;49201;53.426;10.300;2022-11-14T08:24:45;101909.16;;;7.48;97.30
63111;BME280;49201;53.426;10.300;2022-11-14T08:27:29;101907.53;;;7.50;97.52
63111;BME280;49201;53.426;10.300;2022-11-14T08:30:13;101922.19;;;7.54;96.80
63111;BME280;49201;53.426;10.300;2022-11-14T08:33:00;101926.50;;;7.55;97.49
63111;BME280;49201;53.426;10.300;2022-11-14T08:35:45;101922.25;;;7.55;97.16
63111;BME280;49201;53.426;10.300;2022-11-14T08:38:30;101919.72;;;7.55;96.55
63111;BME280;49201;53.426;10.300;2022-11-14T08:41:14;101925.53;;;7.53;96.52
63111;BME280;49201;53.426;10.300;2022-11-14T08:43:58;101925.38;;;7.50;96.72
63111;BME280;49201;53.426;10.300;2022-11-14T08:46:42;101927.34;;;7.55;98.10
63111;BME280;49201;53.426;10.300;2022-11-14T08:49:26;101915.44;;;7.54;96.91
63111;BME280;49201;53.426;10.300;2022-11-14T08:52:11;101927.44;;;7.57;97.79
63111;BME280;49201;53.426;10.300;2022-11-14T08:54:54;101918.91;;;7.56;97.15
63111;BME280;49201;53.426;10.300;2022-11-14T08:57:38;101917.97;;;7.54;97.17
63111;BME280;49201;53.426;10.300;2022-11-14T09:00:23;101915.59;;;7.57;96.87
63111;BME280;49201;53.426;10.300;2022-11-14T09:03:08;101913.25;;;7.62;96.68
63111;BME280;49201;53.426;10.300;2022-11-14T09:05:52;101910.63;;;7.60;96.61
63111;BME280;49201;53.426;10.300;2022-11-14T09:08:36;101909.16;;;7.65;96.84
63111;BME280;49201;53.426;10.300;2022-11-14T09:11:20;101896.72;;;7.71;96.25
63111;BME280;49201;53.426;10.300;2022-11-14T09:14:05;101898.09;;;7.65;96.23
63111;BME280;49201;53.426;10.300;2022-11-14T09:16:49;101897.28;;;7.66;96.89
63111;BME280;49201;53.426;10.300;2022-11-14T09:19:33;101893.94;;;7.67;96.48
63111;BME280;49201;53.426;10.300;2022-11-14T09:22:17;101888.13;;;7.69;97.52
63111;BME280;49201;53.426;10.300;2022-11-14T09:25:01;101909.16;;;7.65;96.89
63111;BME280;49201;53.426;10.300;2022-11-14T09:27:45;101897.50;;;7.70;96.28
63111;BME280;49201;53.426;10.300;2022-11-14T09:30:29;101900.38;;;7.76;96.93
63111;BME280;49201;53.426;10.300;2022-11-14T09:33:13;101887.16;;;7.85;96.58
63111;BME280;49201;53.426;10.300;2022-11-14T09:35:58;101879.59;;;7.86;96.38
63111;BME280;49201;53.426;10.300;2022-11-14T09:38:43;101879.13;;;7.95;96.39
63111;BME280;49201;53.426;10.300;2022-11-14T09:44:52;101878.06;;;7.90;95.30
63111;BME280;49201;53.426;10.300;2022-11-14T09:47:43;101884.31;;;7.96;95.23
63111;BME280;49201;53.426;10.300;2022-11-14T09:50:32;101878.56;;;8.00;94.86
63111;BME280;49201;53.426;10.300;2022-11-14T09:53:30;101877.81;;;8.03;95.05
63111;BME280;49201;53.426;10.300;2022-11-14T09:56:21;101878.47;;;7.99;95.05
63111;BME280;49201;53.426;10.300;2022-11-14T09:59:11;101879.72;;;8.07;94.27
63111;BME280;49201;53.426;10.300;2022-11-14T10:02:05;101871.84;;;8.02;95.14
63111;BME280;49201;53.426;10.300;2022-11-14T10:08:51;101868.97;;;8.14;94.38
63111;BME280;49201;53.426;10.300;2022-11-14T10:11:21;101860.56;;;8.16;93.51
63111;BME280;49201;53.426;10.300;2022-11-14T10:14:31;101860.66;;;8.18;93.85
63111;BME280;49201;53.426;10.300;2022-11-14T10:24:21;101836.00;;;8.36;93.04
63111;BME280;49201;53.426;10.300;2022-11-14T10:27:17;101839.09;;;8.48;92.32
63111;BME280;49201;53.426;10.300;2022-11-14T10:30:09;101824.25;;;8.58;91.72
63111;BME280;49201;53.426;10.300;2022-11-14T10:33:01;101828.53;;;8.59;91.88
63111;BME280;49201;53.426;10.300;2022-11-14T10:36:09;101828.06;;;8.68;91.26
63111;BME280;49201;53.426;10.300;2022-11-14T10:39:07;101816.75;;;8.82;90.87
63111;BME280;49201;53.426;10.300;2022-11-14T10:41:58;101817.25;;;8.94;89.69
63111;BME280;49201;53.426;10.300;2022-11-14T10:45:19;101807.06;;;9.36;88.10
63111;BME280;49201;53.426;10.300;2022-11-14T10:48:11;101794.38;;;9.82;85.25
63111;BME280;49201;53.426;10.300;2022-11-14T10:50:58;101793.63;;;10.78;81.00
63111;BME280;49201;53.426;10.300;2022-11-14T10:53:59;101777.88;;;11.44;76.38
63111;BME280;49201;53.426;10.300;2022-11-14T10:56:48;101761.22;;;13.89;68.22
63111;BME280;49201;53.426;10.300;2022-11-14T10:59:33;101747.72;;;15.45;62.58
63111;BME280;49201;53.426;10.300;2022-11-14T11:02:17;101733.25;;;16.29;57.99
63111;BME280;49201;53.426;10.300;2022-11-14T11:05:14;101728.53;;;15.92;58.41
63111;BME280;49201;53.426;10.300;2022-11-14T11:07:59;101709.28;;;17.45;54.20
63111;BME280;49201;53.426;10.300;2022-11-14T11:11:02;101708.66;;;16.65;55.92
63111;BME280;49201;53.426;10.300;2022-11-14T11:14:04;101700.13;;;19.22;48.16
63111;BME280;49201;53.426;10.300;2022-11-14T11:17:06;101682.06;;;22.21;41.61
63111;BME280;49201;53.426;10.300;2022-11-14T11:19:51;101686.09;;;21.79;42.03
63111;BME280;49201;53.426;10.300;2022-11-14T11:22:36;101675.28;;;22.08;41.61
63111;BME280;49201;53.426;10.300;2022-11-14T11:25:23;101676.56;;;19.73;45.74
63111;BME280;49201;53.426;10.300;2022-11-14T11:28:20;101689.28;;;15.51;55.83
63111;BME280;49201;53.426;10.300;2022-11-14T11:31:09;101667.09;;;19.59;47.58
63111;BME280;49201;53.426;10.300;2022-11-14T11:33:53;101648.34;;;21.39;41.73
63111;BME280;49201;53.426;10.300;2022-11-14T11:36:41;101653.41;;;21.50;42.08
63111;BME280;49201;53.426;10.300;2022-11-14T11:39:33;101632.22;;;23.35;39.01
63111;BME280;49201;53.426;10.300;2022-11-14T11:42:23;101634.25;;;23.19;38.67
63111;BME280;49201;53.426;10.300;2022-11-14T11:45:18;101611.09;;;24.56;36.14
63111;BME280;49201;53.426;10.300;2022-11-14T11:48:16;101606.09;;;24.81;35.97
63111;BME280;49201;53.426;10.300;2022-11-14T11:51:02;101584.28;;;25.41;34.63
63111;BME280;49201;53.426;10.300;2022-11-14T11:53:57;101592.00;;;25.75;34.25
63111;BME280;49201;53.426;10.300;2022-11-14T11:56:45;101624.25;;;23.39;37.96
63111;BME280;49201;53.426;10.300;2022-11-14T11:59:37;101638.13;;;24.57;36.01
63111;BME280;49201;53.426;10.300;2022-11-14T12:02:25;101635.56;;;21.88;38.88
63111;BME280;49201;53.426;10.300;2022-11-14T12:08:03;101656.78;;;22.23;39.67
63111;BME280;49201;53.426;10.300;2022-11-14T12:10:51;101635.78;;;24.11;37.13
63111;BME280;49201;53.426;10.300;2022-11-14T12:23:35;101673.13;;;19.61;46.00
63111;BME280;49201;53.426;10.300;2022-11-14T12:32:31;101671.44;;;17.77;49.99
63111;BME280;49201;53.426;10.300;2022-11-14T12:35:23;101644.44;;;21.01;42.95
63111;BME280;49201;53.426;10.300;2022-11-14T12:38:13;101627.31;;;22.71;40.58
63111;BME280;49201;53.426;10.300;2022-11-14T12:40:59;101624.16;;;23.45;38.02
63111;BME280;49201;53.426;10.300;2022-11-14T12:43:44;101626.16;;;22.84;39.07
63111;BME280;49201;53.426;10.300;2022-11-14T12:47:10;101618.31;;;22.86;39.72
63111;BME280;49201;53.426;10.300;2022-11-14T12:49:57;101627.78;;;20.17;42.90
63111;BME280;49201;53.426;10.300;2022-11-14T12:52:48;101622.78;;;20.97;42.75
63111;BME280;49201;53.426;10.300;2022-11-14T13:01:46;101619.44;;;19.63;45.78
63111;BME280;49201;53.426;10.300;2022-11-14T13:10:30;101623.41;;;20.25;43.39
63111;BME280;49201;53.426;10.300;2022-11-14T13:13:16;101628.66;;;20.13;44.52
63111;BME280;49201;53.426;10.300;2022-11-14T13:16:24;101615.53;;;20.31;44.73
63111;BME280;49201;53.426;10.300;2022-11-14T13:19:28;101605.63;;;19.50;45.36
63111;BME280;49201;53.426;10.300;2022-11-14T13:22:38;101624.00;;;18.57;48.52
63111;BME280;49201;53.426;10.300;2022-11-14T13:25:23;101629.13;;;17.97;50.06
63111;BME280;49201;53.426;10.300;2022-11-14T13:34:33;101620.41;;;17.64;50.69
63111;BME280;49201;53.426;10.300;2022-11-14T13:37:51;101628.97;;;17.46;51.56
63111;BME280;49201;53.426;10.300;2022-11-14T13:40:50;101629.88;;;17.56;51.83
63111;BME280;49201;53.426;10.300;2022-11-14T13:43:50;101627.28;;;17.56;51.63
63111;BME280;49201;53.426;10.300;2022-11-14T13:50:07;101623.03;;;16.32;55.91
63111;BME280;49201;53.426;10.300;2022-11-14T13:52:53;101626.81;;;15.15;58.47
63111;BME280;49201;53.426;10.300;2022-11-14T13:56:03;101631.06;;;15.12;59.04
63111;BME280;49201;53.426;10.300;2022-11-14T14:02:10;101631.50;;;14.82;60.80
63111;BME280;49201;53.426;10.300;2022-11-14T14:08:12;101619.22;;;14.65;60.86
63111;BME280;49201;53.426;10.300;2022-11-14T14:16:57;101613.22;;;15.28;59.68
63111;BME280;49201;53.426;10.300;2022-11-14T14:25:43;101615.41;;;15.00;60.68
63111;BME280;49201;53.426;10.300;2022-11-14T14:31:37;101614.84;;;13.66;65.59
63111;BME280;49201;53.426;10.300;2022-11-14T14:34:30;101618.13;;;13.16;67.32
63111;BME280;49201;53.426;10.300;2022-11-14T14:37:25;101616.59;;;12.88;69.11
63111;BME280;49201;53.426;10.300;2022-11-14T14:40:26;101606.66;;;12.64;70.33
63111;BME280;49201;53.426;10.300;2022-11-14T14:43:13;101608.31;;;12.62;71.21
63111;BME280;49201;53.426;10.300;2022-11-14T14:46:05;101603.75;;;12.51;71.17
63111;BME280;49201;53.426;10.300;2022-11-14T14:48:49;101596.72;;;12.10;73.14
63111;BME280;49201;53.426;10.300;2022-11-14T14:51:35;101588.03;;;12.05;73.06
63111;BME280;49201;53.426;10.300;2022-11-14T14:54:22;101586.16;;;11.98;73.84
63111;BME280;49201;53.426;10.300;2022-11-14T14:57:15;101579.53;;;11.73;74.59
63111;BME280;49201;53.426;10.300;2022-11-14T15:02:46;101587.44;;;11.51;75.58
63111;BME280;49201;53.426;10.300;2022-11-14T15:05:30;101590.88;;;11.22;76.84
63111;BME280;49201;53.426;10.300;2022-11-14T15:08:15;101603.38;;;11.12;77.76
63111;BME280;49201;53.426;10.300;2022-11-14T15:11:00;101595.38;;;11.01;77.94
63111;BME280;49201;53.426;10.300;2022-11-14T15:13:52;101592.31;;;10.85;78.65
63111;BME280;49201;53.426;10.300;2022-11-14T15:16:37;101591.41;;;10.83;79.05
63111;BME280;49201;53.426;10.300;2022-11-14T15:19:23;101595.28;;;10.70;79.06
63111;BME280;49201;53.426;10.300;2022-11-14T15:25:04;101596.31;;;10.49;80.08
63111;BME280;49201;53.426;10.300;2022-11-14T15:27:53;101596.47;;;10.28;80.50
63111;BME280;49201;53.426;10.300;2022-11-14T15:30:38;101589.56;;;10.24;81.04
63111;BME280;49201;53.426;10.300;2022-11-14T15:33:32;101595.78;;;10.07;81.34
63111;BME280;49201;53.426;10.300;2022-11-14T15:36:16;101594.38;;;9.92;82.15
63111;BME280;49201;53.426;10.300;2022-11-14T15:39:28;101597.59;;;9.86;82.75
63111;BME280;49201;53.426;10.300;2022-11-14T15:45:20;101600.75;;;9.79;83.50
63111;BME280;49201;53.426;10.300;2022-11-14T15:48:12;101600.38;;;9.69;83.98
63111;BME280;49201;53.426;10.300;2022-11-14T15:50:58;101596.75;;;9.62;83.89
63111;BME280;49201;53.426;10.300;2022-11-14T15:53:47;101592.97;;;9.53;84.02
63111;BME280;49201;53.426;10.300;2022-11-14T15:56:32;101584.25;;;9.46;84.75
63111;BME280;49201;53.426;10.300;2022-11-14T15:59:16;101570.44;;;9.41;85.54
63111;BME280;49201;53.426;10.300;2022-11-14T16:02:11;101569.34;;;9.35;85.42